This is the latest recevied weather packets stored in our database for station/object 9M2ZEE-0. If no packets are shown the sender has not sent any weather packets the latest 10 day(s).
| Time | Temp. | Humidity | Pressure | Rain* | Wind** | Luminosity | Snow |
|---|---|---|---|---|---|---|---|
| 1787510740 | 28.33° C | 99% | 1010 hPa | - | - | 0 W/m² | - |
| 1787508914 | 28.33° C | 99% | 1010 hPa | - | - | 0 W/m² | - |
| 1787507088 | 29.44° C | 99% | 1010 hPa | - | - | 0 W/m² | - |
| 1787505259 | 28.33° C | 99% | 1010 hPa | - | - | 0 W/m² | - |
| 1787503435 | 29.44° C | 99% | 1011 hPa | - | - | 0 W/m² | - |
| 1787501609 | 28.33° C | 99% | 1011 hPa | - | - | 0 W/m² | - |
| 1787499783 | 29.44° C | 99% | 1011 hPa | - | - | 0 W/m² | - |
| 1787497957 | 29.44° C | 99% | 1011 hPa | - | - | 0 W/m² | - |
| 1787496132 | 29.44° C | 99% | 1011 hPa | - | - | 0 W/m² | - |
| 1787495691 | 28.89° C | 99% | 1011 hPa | - | - | 0 W/m² | - |
| 1787493866 | 30° C | 99% | 1011 hPa | - | - | 0 W/m² | - |
| 1787492039 | 30.56° C | 99% | 1010 hPa | - | - | 0 W/m² | - |
| 1787490212 | 30° C | 99% | 1010 hPa | - | - | 0 W/m² | - |
| 1787488386 | 31.67° C | 99% | 1009 hPa | - | - | 0 W/m² | - |
| 1787486559 | 31.67° C | 99% | 1009 hPa | - | - | 0 W/m² | - |
| 1787484729 | 32.78° C | 99% | 1009 hPa | - | - | 0 W/m² | - |
| 1787482902 | 33.89° C | 96% | 1008 hPa | - | - | 0 W/m² | - |
| 1787481073 | 36.67° C | 54% | 1008 hPa | - | - | 0 W/m² | - |
| 1787479246 | 42.22° C | 43% | 1008 hPa | - | - | 0 W/m² | - |
| 1787477421 | 43.89° C | 39% | 1007 hPa | - | - | 0 W/m² | - |
| 1787477293 | 43.33° C | 37% | 1007 hPa | - | - | 0 W/m² | - |
| 1787475468 | 42.22° C | 42% | 1007 hPa | - | - | 0 W/m² | - |
| 1787473641 | 43.33° C | 45% | 1007 hPa | - | - | 0 W/m² | - |
| 1787471813 | 40° C | 52% | 1008 hPa | - | - | 0 W/m² | - |
| 1787469988 | 38.89° C | 56% | 1008 hPa | - | - | 0 W/m² | - |
* Rain since midnight (hover to see other rain measurements)
** Current wind speed in m/s (hover to see current wind gust speed)